createdAt,value
2022-11-26T00:01:20.607Z,95484.41
2022-11-26T00:03:49.426Z,95474.19
2022-11-26T00:06:19.212Z,95493.34
2022-11-26T00:08:46.066Z,95479.66
2022-11-26T00:11:15.888Z,95382.88
2022-11-26T00:13:42.797Z,95484.75
2022-11-26T00:16:14.324Z,95486.81
2022-11-26T00:18:43.467Z,95492.97
2022-11-26T00:21:18.663Z,95488.06
2022-11-26T00:23:46.040Z,95487.06
2022-11-26T00:26:19.212Z,95489.50
2022-11-26T00:29:00.266Z,95485.84
2022-11-26T00:31:28.503Z,95481.38
2022-11-26T00:33:55.548Z,95480.13
2022-11-26T00:36:27.493Z,95477.63
2022-11-26T00:39:03.365Z,95454.59
2022-11-26T00:41:38.274Z,95484.38
2022-11-26T00:44:17.004Z,95478.22
2022-11-26T00:46:44.021Z,95477.22
2022-11-26T00:49:10.965Z,95495.94
2022-11-26T00:51:38.006Z,95489.66
2022-11-26T00:54:05.862Z,95491.06
2022-11-26T00:56:37.861Z,95496.47
2022-11-26T00:59:05.863Z,95498.31
2022-11-26T01:01:33.014Z,95501.50
2022-11-26T01:04:00.380Z,95502.72
2022-11-26T01:06:34.148Z,95501.66
2022-11-26T01:09:02.227Z,95500.00
2022-11-26T01:11:29.285Z,95504.84
2022-11-26T01:13:56.656Z,95448.31
2022-11-26T01:16:35.490Z,95466.59
2022-11-26T01:19:03.370Z,95520.59
2022-11-26T01:21:31.703Z,95525.81
2022-11-26T01:23:58.632Z,95518.81
2022-11-26T01:26:28.469Z,95526.34
2022-11-26T01:28:55.940Z,95527.34
2022-11-26T01:31:26.075Z,95522.84
2022-11-26T01:33:54.223Z,95523.97
2022-11-26T01:36:32.818Z,95530.34
2022-11-26T01:39:20.687Z,95539.41
2022-11-26T01:42:07.988Z,95534.06
2022-11-26T01:44:37.254Z,95518.34
2022-11-26T01:47:21.683Z,95532.94
2022-11-26T01:50:26.145Z,95531.13
2022-11-26T01:52:55.451Z,95519.75
2022-11-26T01:55:22.518Z,95512.44
2022-11-26T01:57:50.887Z,95532.16
2022-11-26T02:00:17.984Z,95520.94
2022-11-26T02:02:45.748Z,95527.47
2022-11-26T02:05:22.624Z,95535.44
2022-11-26T02:07:50.554Z,95532.75
2022-11-26T02:10:17.720Z,95523.75
2022-11-26T02:12:45.241Z,95538.22
2022-11-26T02:15:12.663Z,95538.16
2022-11-26T02:17:44.075Z,95534.31
2022-11-26T02:20:23.102Z,95535.28
2022-11-26T02:22:49.925Z,95528.91
2022-11-26T02:25:27.132Z,95529.06
2022-11-26T02:27:57.855Z,95525.00
2022-11-26T02:30:30.584Z,95533.75
2022-11-26T02:33:18.396Z,95536.34
2022-11-26T02:35:49.228Z,95520.19
2022-11-26T02:38:22.775Z,95522.13
2022-11-26T02:40:50.535Z,95523.94
2022-11-26T02:43:18.707Z,95511.69
2022-11-26T02:45:54.328Z,95523.13
2022-11-26T02:48:28.884Z,95520.84
2022-11-26T02:51:00.708Z,95514.34
2022-11-26T02:53:31.205Z,95526.75
2022-11-26T02:56:09.075Z,95517.34
2022-11-26T02:58:36.804Z,95535.91
2022-11-26T03:01:09.622Z,95518.09
2022-11-26T03:03:43.682Z,95520.53
2022-11-26T03:06:13.848Z,95529.06
2022-11-26T03:08:43.075Z,95543.75
2022-11-26T03:11:10.022Z,95541.78
2022-11-26T03:13:37.028Z,95539.59
2022-11-26T03:16:04.606Z,95551.38
2022-11-26T03:18:31.746Z,95535.69
2022-11-26T03:20:58.585Z,95516.59
2022-11-26T03:23:27.503Z,95544.47
2022-11-26T03:25:54.674Z,95555.28
2022-11-26T03:28:21.571Z,95559.94
2022-11-26T03:30:52.637Z,95581.66
2022-11-26T03:33:20.245Z,95582.66
2022-11-26T03:35:48.987Z,95544.22
2022-11-26T03:38:17.079Z,95565.69
2022-11-26T03:40:44.036Z,95588.59
2022-11-26T03:43:11.095Z,95582.41
2022-11-26T03:45:38.038Z,95578.25
2022-11-26T03:48:05.470Z,95569.16
2022-11-26T03:50:32.374Z,95595.03
2022-11-26T03:52:59.247Z,95587.41
2022-11-26T03:55:26.270Z,95597.25
2022-11-26T03:57:53.247Z,95584.81
2022-11-26T04:00:20.821Z,95601.97
2022-11-26T04:02:47.727Z,95607.97
2022-11-26T04:05:14.716Z,95601.81
2022-11-26T04:07:41.946Z,95606.28
2022-11-26T04:10:09.264Z,95614.19
2022-11-26T04:12:36.746Z,95607.91
2022-11-26T04:15:04.089Z,95624.16
2022-11-26T04:17:31.379Z,95616.88
2022-11-26T04:19:58.234Z,95611.44
2022-11-26T04:22:25.110Z,95623.50
2022-11-26T04:24:52.099Z,95615.06
2022-11-26T04:27:19.521Z,95634.53
2022-11-26T04:29:46.687Z,95631.63
2022-11-26T04:32:13.901Z,95590.81
2022-11-26T04:34:40.944Z,95640.25
2022-11-26T04:37:08.182Z,95638.63
2022-11-26T04:39:36.090Z,95624.44
2022-11-26T04:42:02.970Z,95653.91
2022-11-26T04:44:30.023Z,95652.72
2022-11-26T04:46:56.889Z,95655.63
2022-11-26T04:49:23.981Z,95663.28
2022-11-26T04:51:51.146Z,95656.19
2022-11-26T04:54:18.017Z,95660.81
2022-11-26T04:56:45.112Z,95649.44
2022-11-26T04:59:12.199Z,95644.44
2022-11-26T05:01:39.177Z,95666.91
2022-11-26T05:04:06.151Z,95667.91
2022-11-26T05:06:33.413Z,95664.63
2022-11-26T05:09:00.629Z,95685.44
2022-11-26T05:11:27.602Z,95681.34
2022-11-26T05:13:54.620Z,95682.47
2022-11-26T05:16:21.544Z,95677.09
2022-11-26T05:18:48.466Z,95696.28
2022-11-26T05:21:15.387Z,95678.28
2022-11-26T05:23:42.261Z,95684.63
2022-11-26T05:26:09.160Z,95681.56
2022-11-26T05:28:36.056Z,95678.94
2022-11-26T05:31:04.481Z,95697.00
2022-11-26T05:33:31.642Z,95680.47
2022-11-26T05:35:58.694Z,95710.00
2022-11-26T05:38:25.772Z,95707.94
2022-11-26T05:40:52.876Z,95712.81
2022-11-26T05:43:20.054Z,95701.16
2022-11-26T05:45:47.349Z,95705.88
2022-11-26T05:48:14.470Z,95709.53
2022-11-26T05:50:41.402Z,95702.91
2022-11-26T05:53:08.495Z,95705.34
2022-11-26T05:55:35.334Z,95702.47
2022-11-26T05:58:02.247Z,95715.94
2022-11-26T06:00:29.259Z,95710.75
2022-11-26T06:02:56.403Z,95692.81
2022-11-26T06:05:23.437Z,95716.78
2022-11-26T06:07:50.523Z,95714.88
2022-11-26T06:10:17.669Z,95713.53
2022-11-26T06:12:44.588Z,95722.78
2022-11-26T06:15:11.737Z,95701.69
2022-11-26T06:17:38.735Z,95728.19
2022-11-26T06:20:06.557Z,95730.44
2022-11-26T06:22:38.567Z,95734.47
2022-11-26T06:25:08.104Z,95735.72
2022-11-26T06:27:36.930Z,95700.81
2022-11-26T06:30:05.857Z,95734.28
2022-11-26T06:32:32.881Z,95736.13
2022-11-26T06:34:59.903Z,95729.13
2022-11-26T06:37:27.078Z,95730.56
2022-11-26T06:39:54.183Z,95723.19
2022-11-26T06:42:21.357Z,95745.06
2022-11-26T06:44:48.318Z,95741.50
2022-11-26T06:47:15.343Z,95731.66
2022-11-26T06:49:42.553Z,95749.75
2022-11-26T06:52:09.448Z,95719.03
2022-11-26T06:54:36.680Z,95706.47
2022-11-26T06:57:04.004Z,95723.34
2022-11-26T06:59:30.959Z,95728.44
2022-11-26T07:01:58.176Z,95741.59
2022-11-26T07:04:25.175Z,95729.72
2022-11-26T07:06:52.109Z,95747.41
2022-11-26T07:09:19.131Z,95738.75
2022-11-26T07:11:50.203Z,95742.44
2022-11-26T07:14:18.518Z,95726.56
2022-11-26T07:16:45.422Z,95728.63
2022-11-26T07:19:14.283Z,95733.88
2022-11-26T07:21:41.214Z,95745.44
2022-11-26T07:24:08.473Z,95711.25
2022-11-26T07:26:35.479Z,95751.59
2022-11-26T07:29:02.412Z,95746.56
2022-11-26T07:31:29.603Z,95725.81
2022-11-26T07:33:57.756Z,95725.41
2022-11-26T07:36:27.054Z,95752.72
2022-11-26T07:38:59.860Z,95748.56
2022-11-26T07:41:28.358Z,95738.44
2022-11-26T07:43:55.316Z,95752.00
2022-11-26T07:46:24.796Z,95750.50
2022-11-26T07:48:51.923Z,95762.28
2022-11-26T07:51:24.823Z,95760.19
2022-11-26T07:53:52.466Z,95763.28
2022-11-26T07:56:19.913Z,95772.13
2022-11-26T07:58:47.706Z,95747.25
2022-11-26T08:01:19.783Z,95731.72
2022-11-26T08:03:48.790Z,95779.78
2022-11-26T08:06:19.017Z,95704.94
2022-11-26T08:08:46.334Z,95775.41
2022-11-26T08:11:20.075Z,95789.06
2022-11-26T08:13:47.862Z,95757.47
2022-11-26T08:16:15.406Z,95770.84
2022-11-26T08:18:43.310Z,95764.75
2022-11-26T08:21:10.687Z,95775.78
2022-11-26T08:23:38.398Z,95761.19
2022-11-26T08:28:59.592Z,95783.38
2022-11-26T08:31:28.230Z,95784.63
2022-11-26T08:34:03.089Z,95767.94
2022-11-26T08:36:31.409Z,95774.72
2022-11-26T08:38:59.853Z,95781.31
2022-11-26T08:41:27.108Z,95775.59
2022-11-26T08:44:09.381Z,95767.03
2022-11-26T08:46:38.395Z,95763.22
2022-11-26T08:49:07.782Z,95694.59
2022-11-26T08:51:34.846Z,95792.31
2022-11-26T08:54:02.233Z,95762.13
2022-11-26T08:56:29.322Z,95774.50
2022-11-26T08:58:56.266Z,95778.78
2022-11-26T09:01:28.867Z,95757.19
2022-11-26T09:03:58.658Z,95790.16
2022-11-26T09:06:26.626Z,95788.84
2022-11-26T09:09:12.695Z,95773.44
2022-11-26T09:11:42.636Z,95786.59
2022-11-26T09:14:10.765Z,95787.69
2022-11-26T09:16:38.102Z,95773.41
2022-11-26T09:19:06.632Z,95785.72
2022-11-26T09:21:35.167Z,95784.91
2022-11-26T09:24:02.962Z,95787.94
2022-11-26T09:26:34.153Z,95772.97
2022-11-26T09:29:01.472Z,95744.13
2022-11-26T09:31:29.181Z,95771.91
2022-11-26T09:33:58.079Z,95776.09
2022-11-26T09:36:24.989Z,95780.91
2022-11-26T09:38:56.280Z,95784.38
2022-11-26T09:41:48.761Z,95780.09
2022-11-26T09:44:26.954Z,95783.34
2022-11-26T09:47:13.389Z,95775.63
2022-11-26T09:49:52.508Z,95763.19
2022-11-26T09:52:22.682Z,95746.69
2022-11-26T09:54:56.315Z,95759.81
2022-11-26T09:57:40.125Z,95683.19
2022-11-26T10:00:21.783Z,95734.72
2022-11-26T10:02:53.015Z,95743.38
2022-11-26T10:05:37.414Z,95716.06
2022-11-26T10:08:14.585Z,95744.47
2022-11-26T10:11:13.954Z,95742.03
2022-11-26T10:14:04.468Z,95740.22
2022-11-26T10:17:07.246Z,95692.88
2022-11-26T10:20:02.836Z,95739.22
2022-11-26T10:22:57.140Z,95703.09
2022-11-26T10:25:28.608Z,95733.94
2022-11-26T10:27:57.366Z,95729.03
2022-11-26T10:30:31.036Z,95734.97
2022-11-26T10:33:02.499Z,95726.81
2022-11-26T10:35:29.763Z,95732.94
2022-11-26T10:37:57.650Z,95711.72
2022-11-26T10:40:27.312Z,95712.94
2022-11-26T10:43:08.316Z,95719.88
2022-11-26T10:45:55.848Z,95695.16
2022-11-26T10:48:31.316Z,95712.91
2022-11-26T10:51:06.401Z,95717.81
2022-11-26T10:53:54.910Z,95716.19
2022-11-26T10:56:47.193Z,95722.50
2022-11-26T10:59:25.892Z,95720.47
2022-11-26T11:01:57.460Z,95719.47
2022-11-26T11:04:30.861Z,95727.03
2022-11-26T11:06:58.308Z,95729.66
2022-11-26T11:09:36.744Z,95721.09
2022-11-26T11:12:23.441Z,95720.06
2022-11-26T11:14:51.994Z,95704.75
2022-11-26T11:17:39.934Z,95724.53
2022-11-26T11:20:29.489Z,95673.09
2022-11-26T11:23:18.084Z,95689.22
2022-11-26T11:25:56.414Z,95708.78
2022-11-26T11:28:26.407Z,95720.00
2022-11-26T11:31:04.760Z,95714.09
2022-11-26T11:33:32.139Z,95709.19
2022-11-26T11:36:03.401Z,95723.44
2022-11-26T11:38:34.799Z,95725.66
2022-11-26T11:41:05.317Z,95713.44
2022-11-26T11:43:35.845Z,95709.81
2022-11-26T11:46:13.357Z,95692.03
2022-11-26T11:48:43.682Z,95713.03
2022-11-26T11:51:35.304Z,95703.84
2022-11-26T11:54:12.532Z,95701.78
2022-11-26T11:57:14.969Z,95701.19
2022-11-26T12:00:29.731Z,95700.09
2022-11-26T12:03:43.233Z,95696.03
2022-11-26T12:06:15.942Z,95700.31
2022-11-26T12:09:07.929Z,95698.28
2022-11-26T12:11:44.004Z,95698.06
2022-11-26T12:14:32.524Z,95683.34
2022-11-26T12:17:06.634Z,95687.44
2022-11-26T12:19:52.832Z,95660.88
2022-11-26T12:22:32.285Z,95688.00
2022-11-26T12:25:03.159Z,95694.13
2022-11-26T12:27:42.477Z,95669.84
2022-11-26T12:30:22.174Z,95641.66
2022-11-26T12:33:25.574Z,95674.50
2022-11-26T12:36:01.204Z,95676.34
2022-11-26T12:38:35.050Z,95652.44
2022-11-26T12:41:08.246Z,95670.56
2022-11-26T12:43:48.296Z,95670.75
2022-11-26T12:46:52.487Z,95674.56
2022-11-26T12:49:51.038Z,95670.88
2022-11-26T12:52:29.186Z,95674.78
2022-11-26T12:55:03.764Z,95669.78
2022-11-26T12:57:37.208Z,95622.91
2022-11-26T13:00:15.100Z,95670.75
2022-11-26T13:02:45.329Z,95667.50
2022-11-26T13:05:20.147Z,95664.03
2022-11-26T13:08:02.244Z,95673.38
2022-11-26T13:10:54.795Z,95658.25
2022-11-26T13:13:58.411Z,95675.13
2022-11-26T13:16:37.966Z,95643.00
2022-11-26T13:19:19.808Z,95665.78
2022-11-26T13:22:05.448Z,95667.16
2022-11-26T13:24:58.081Z,95669.41
2022-11-26T13:27:28.088Z,95676.38
2022-11-26T13:30:18.168Z,95670.66
2022-11-26T13:32:59.061Z,95674.53
2022-11-26T13:35:47.841Z,95671.28
2022-11-26T13:38:21.638Z,95678.19
2022-11-26T13:41:10.126Z,95679.59
2022-11-26T13:43:50.189Z,95682.50
2022-11-26T13:46:31.187Z,95668.88
2022-11-26T13:49:15.346Z,95677.19
2022-11-26T13:51:53.351Z,95685.19
2022-11-26T13:54:23.439Z,95684.16
2022-11-26T13:57:13.929Z,95678.41
2022-11-26T13:59:53.434Z,95651.09
2022-11-26T14:02:32.723Z,95682.25
2022-11-26T14:05:03.328Z,95677.94
2022-11-26T14:07:30.965Z,95685.50
2022-11-26T14:10:00.862Z,95678.41
2022-11-26T14:13:02.403Z,95683.13
2022-11-26T14:15:57.796Z,95691.53
2022-11-26T14:18:50.522Z,95687.50
2022-11-26T14:21:22.169Z,95688.97
2022-11-26T14:23:52.143Z,95692.84
2022-11-26T14:26:22.411Z,95694.50
2022-11-26T14:28:49.309Z,95688.78
2022-11-26T14:31:23.129Z,95701.44
2022-11-26T14:33:54.051Z,95687.97
2022-11-26T14:36:25.135Z,95698.38
2022-11-26T14:39:12.049Z,95704.09
2022-11-26T14:41:42.167Z,95698.38
2022-11-26T14:44:15.149Z,95693.91
2022-11-26T14:46:45.608Z,95688.22
2022-11-26T14:49:18.687Z,95705.38
2022-11-26T14:51:47.442Z,95705.44
2022-11-26T14:54:33.278Z,95718.13
2022-11-26T14:57:06.913Z,95719.78
2022-11-26T14:59:34.094Z,95716.94
2022-11-26T15:02:03.257Z,95703.50
2022-11-26T15:04:40.118Z,95719.22
2022-11-26T15:07:07.572Z,95722.59
2022-11-26T15:09:36.858Z,95731.78
2022-11-26T15:12:16.070Z,95724.69
2022-11-26T15:17:49.250Z,95711.09
2022-11-26T15:20:18.108Z,95739.88
2022-11-26T15:22:51.720Z,95736.81
2022-11-26T15:25:22.164Z,95746.00
2022-11-26T15:27:59.143Z,95741.53
2022-11-26T15:30:30.579Z,95742.13
2022-11-26T15:33:00.413Z,95739.47
2022-11-26T15:35:28.375Z,95731.31
2022-11-26T15:37:55.675Z,95750.88
2022-11-26T15:40:31.491Z,95743.56
2022-11-26T15:43:04.379Z,95743.13
2022-11-26T15:45:55.052Z,95747.22
2022-11-26T15:48:53.717Z,95758.59
2022-11-26T15:51:27.427Z,95748.81
2022-11-26T15:53:58.065Z,95744.69
2022-11-26T15:56:30.410Z,95745.72
2022-11-26T15:59:00.815Z,95755.31
2022-11-26T16:01:32.736Z,95742.22
2022-11-26T16:04:04.581Z,95727.53
2022-11-26T16:06:40.065Z,95746.50
2022-11-26T16:09:12.523Z,95750.97
2022-11-26T16:11:56.687Z,95750.75
2022-11-26T16:14:32.426Z,95747.47
2022-11-26T16:17:08.068Z,95740.69
2022-11-26T16:19:37.472Z,95760.28
2022-11-26T16:22:06.037Z,95760.88
2022-11-26T16:24:42.656Z,95759.63
2022-11-26T16:27:20.776Z,95759.00
2022-11-26T16:29:48.232Z,95753.06
2022-11-26T16:32:16.516Z,95753.25
2022-11-26T16:34:44.330Z,95759.75
2022-11-26T16:37:27.898Z,95774.22
2022-11-26T16:40:04.094Z,95788.88
2022-11-26T16:42:32.672Z,95784.97
2022-11-26T16:45:03.875Z,95779.84
2022-11-26T16:47:36.125Z,95788.81
2022-11-26T16:50:03.875Z,95792.28
2022-11-26T16:52:30.800Z,95782.84
2022-11-26T16:54:57.849Z,95795.25
2022-11-26T16:57:27.615Z,95795.25
2022-11-26T17:00:02.209Z,95798.69
2022-11-26T17:02:29.434Z,95777.81
2022-11-26T17:04:56.363Z,95798.00
2022-11-26T17:07:30.341Z,95816.16
2022-11-26T17:09:57.555Z,95812.66
2022-11-26T17:12:25.608Z,95810.31
2022-11-26T17:17:25.273Z,95809.50
2022-11-26T17:19:52.872Z,95792.50
2022-11-26T17:22:20.311Z,95811.75
2022-11-26T17:24:47.184Z,95823.13
2022-11-26T17:27:16.716Z,95808.56
2022-11-26T17:29:45.722Z,95827.34
2022-11-26T17:32:20.132Z,95821.22
2022-11-26T17:34:48.130Z,95836.31
2022-11-26T17:37:19.617Z,95836.31
2022-11-26T17:39:46.754Z,95828.13
2022-11-26T17:42:13.598Z,95822.41
2022-11-26T17:44:40.750Z,95817.66
2022-11-26T17:47:17.332Z,95828.50
2022-11-26T17:49:45.789Z,95832.53
2022-11-26T17:52:13.672Z,95834.53
2022-11-26T17:54:41.148Z,95844.50
2022-11-26T17:57:09.426Z,95854.53
2022-11-26T17:59:36.636Z,95852.19
2022-11-26T18:02:04.154Z,95867.47
2022-11-26T18:04:31.076Z,95855.59
2022-11-26T18:07:08.311Z,95859.19
2022-11-26T18:09:35.333Z,95859.81
2022-11-26T18:12:03.354Z,95874.09
2022-11-26T18:14:30.656Z,95852.75
2022-11-26T18:16:57.647Z,95843.03
2022-11-26T18:19:26.163Z,95875.56
2022-11-26T18:21:53.245Z,95849.75
2022-11-26T18:24:20.722Z,95879.00
2022-11-26T18:26:47.717Z,95879.00
2022-11-26T18:29:14.624Z,95876.72
2022-11-26T18:31:41.631Z,95867.81
2022-11-26T18:34:08.584Z,95884.47
2022-11-26T18:36:35.566Z,95867.16
2022-11-26T18:39:04.886Z,95890.91
2022-11-26T18:41:32.268Z,95887.09
2022-11-26T18:43:59.124Z,95869.88
2022-11-26T18:46:26.164Z,95880.16
2022-11-26T18:48:53.099Z,95885.44
2022-11-26T18:51:20.172Z,95877.59
2022-11-26T18:53:47.471Z,95859.97
2022-11-26T18:56:19.444Z,95887.47
2022-11-26T18:58:46.477Z,95884.63
2022-11-26T19:01:18.902Z,95885.63
2022-11-26T19:03:46.375Z,95894.38
2022-11-26T19:06:22.546Z,95894.56
2022-11-26T19:08:50.902Z,95883.09
2022-11-26T19:11:20.757Z,95897.41
2022-11-26T19:13:48.340Z,95899.41
2022-11-26T19:16:17.326Z,95880.56
2022-11-26T19:18:45.741Z,95887.56
2022-11-26T19:21:29.263Z,95901.41
2022-11-26T19:23:58.576Z,95896.25
2022-11-26T19:26:25.429Z,95868.66
2022-11-26T19:28:52.773Z,95897.69
2022-11-26T19:31:22.451Z,95893.41
2022-11-26T19:34:01.124Z,95889.94
2022-11-26T19:36:29.806Z,95838.81
2022-11-26T19:38:58.597Z,95907.13
2022-11-26T19:41:26.235Z,95899.19
2022-11-26T19:43:53.540Z,95893.50
2022-11-26T19:46:24.209Z,95901.91
2022-11-26T19:48:52.829Z,95905.00
2022-11-26T19:51:21.645Z,95879.97
2022-11-26T19:53:50.986Z,95906.63
2022-11-26T19:56:20.951Z,95894.09
2022-11-26T19:58:48.666Z,95906.19
2022-11-26T20:01:18.834Z,95892.72
2022-11-26T20:03:46.027Z,95915.47
2022-11-26T20:06:19.390Z,95900.94
2022-11-26T20:08:47.648Z,95905.22
2022-11-26T20:11:16.421Z,95913.78
2022-11-26T20:13:45.256Z,95890.00
2022-11-26T20:16:17.251Z,95905.94
2022-11-26T20:18:44.457Z,95888.91
2022-11-26T20:21:14.454Z,95917.78
2022-11-26T20:23:42.271Z,95915.31
2022-11-26T20:26:19.728Z,95923.16
2022-11-26T20:28:48.037Z,95904.56
2022-11-26T20:31:20.695Z,95846.47
2022-11-26T20:33:51.520Z,95917.63
2022-11-26T20:36:21.002Z,95917.84
2022-11-26T20:38:52.572Z,95904.72
2022-11-26T20:41:20.185Z,95906.38
2022-11-26T20:43:47.274Z,95878.69
2022-11-26T20:46:34.364Z,95901.25
2022-11-26T20:49:01.411Z,95905.53
2022-11-26T20:51:28.486Z,95899.81
2022-11-26T20:53:59.261Z,95917.41
2022-11-26T20:56:26.608Z,95913.19
2022-11-26T20:58:54.047Z,95923.88
2022-11-26T21:01:25.458Z,95924.88
2022-11-26T21:03:53.796Z,95914.78
2022-11-26T21:06:29.050Z,95921.34
2022-11-26T21:08:59.782Z,95915.97
2022-11-26T21:11:27.538Z,95909.78
2022-11-26T21:13:54.958Z,95919.72
2022-11-26T21:16:23.348Z,95909.41
2022-11-26T21:18:53.134Z,95834.59
2022-11-26T21:21:20.550Z,95927.00
2022-11-26T21:23:47.507Z,95934.13
2022-11-26T21:26:19.858Z,95922.00
2022-11-26T21:28:55.376Z,95937.94
2022-11-26T21:31:23.250Z,95932.66
2022-11-26T21:34:03.345Z,95942.59
2022-11-26T21:36:31.938Z,95937.47
2022-11-26T21:38:58.951Z,95940.75
2022-11-26T21:41:26.654Z,95911.09
2022-11-26T21:43:54.187Z,95923.84
2022-11-26T21:46:26.365Z,95925.47
2022-11-26T21:48:55.059Z,95921.44
2022-11-26T21:51:23.988Z,95902.16
2022-11-26T21:53:52.983Z,95941.31
2022-11-26T21:56:22.647Z,95939.03
2022-11-26T21:58:50.598Z,95924.72
2022-11-26T22:01:31.556Z,95938.03
2022-11-26T22:04:02.396Z,95928.19
2022-11-26T22:06:31.316Z,95927.94
2022-11-26T22:08:58.596Z,95937.50
2022-11-26T22:11:31.493Z,95926.47
2022-11-26T22:13:58.825Z,95946.69
2022-11-26T22:16:27.279Z,95945.03
2022-11-26T22:18:56.386Z,95940.75
2022-11-26T22:21:26.366Z,95945.59
2022-11-26T22:23:53.696Z,95903.03
2022-11-26T22:26:21.438Z,95942.13
2022-11-26T22:28:49.715Z,95945.13
2022-11-26T22:31:31.353Z,95950.41
2022-11-26T22:34:04.848Z,95939.53
2022-11-26T22:36:32.804Z,95941.41
2022-11-26T22:39:01.939Z,95937.56
2022-11-26T22:41:29.108Z,95929.19
2022-11-26T22:43:57.763Z,95938.97
2022-11-26T22:46:24.836Z,95925.66
2022-11-26T22:48:57.411Z,95941.66
2022-11-26T22:51:25.627Z,95908.84
2022-11-26T22:53:57.355Z,95950.28
2022-11-26T22:56:25.563Z,95934.72
2022-11-26T22:58:52.734Z,95945.44
2022-11-26T23:01:26.725Z,95942.50
2022-11-26T23:03:55.030Z,95926.56
2022-11-26T23:06:24.196Z,95931.28
2022-11-26T23:08:52.241Z,95942.63
2022-11-26T23:11:26.758Z,95948.06
2022-11-26T23:13:55.042Z,95934.59
2022-11-26T23:16:24.704Z,95937.78
2022-11-26T23:18:53.912Z,95946.59
2022-11-26T23:21:23.670Z,95940.19
2022-11-26T23:23:51.414Z,95949.06
2022-11-26T23:26:26.855Z,95949.31
2022-11-26T23:28:59.223Z,95940.31
2022-11-26T23:31:28.754Z,95936.50
2022-11-26T23:33:55.816Z,95955.91
2022-11-26T23:36:23.698Z,95944.78
2022-11-26T23:38:50.586Z,95956.44
2022-11-26T23:41:17.861Z,95957.41
2022-11-26T23:43:45.490Z,95965.78
2022-11-26T23:46:28.284Z,95963.25
2022-11-26T23:48:55.864Z,95967.03
2022-11-26T23:51:25.424Z,95947.44
2022-11-26T23:53:53.172Z,95953.69
2022-11-26T23:56:26.144Z,95943.59
2022-11-26T23:58:55.613Z,95929.44
